createdAt,value
2022-11-01T00:01:26.683Z,23.17
2022-11-01T00:03:53.399Z,22.40
2022-11-01T00:06:19.985Z,22.05
2022-11-01T00:08:46.708Z,21.88
2022-11-01T00:11:16.319Z,23.55
2022-11-01T00:13:45.841Z,22.50
2022-11-01T00:16:13.530Z,21.42
2022-11-01T00:18:40.573Z,21.58
2022-11-01T00:21:07.242Z,22.05
2022-11-01T00:23:34.073Z,21.05
2022-11-01T00:26:01.801Z,21.95
2022-11-01T00:28:29.326Z,20.05
2022-11-01T00:30:57.503Z,20.83
2022-11-01T00:33:25.355Z,20.17
2022-11-01T00:35:52.633Z,19.65
2022-11-01T00:38:19.651Z,20.38
2022-11-01T00:40:46.445Z,20.60
2022-11-01T00:43:13.522Z,19.45
2022-11-01T00:45:42.586Z,21.15
2022-11-01T00:48:09.343Z,21.27
2022-11-01T00:50:36.208Z,20.73
2022-11-01T00:53:03.045Z,21.02
2022-11-01T00:55:29.837Z,22.10
2022-11-01T00:57:56.797Z,20.13
2022-11-01T01:00:24.212Z,19.73
2022-11-01T01:02:51.088Z,20.30
2022-11-01T01:05:18.552Z,23.15
2022-11-01T01:07:45.506Z,19.55
2022-11-01T01:10:12.850Z,20.13
2022-11-01T01:12:39.984Z,19.48
2022-11-01T01:15:08.132Z,19.35
2022-11-01T01:17:34.995Z,20.35
2022-11-01T01:20:01.987Z,20.00
2022-11-01T01:22:28.886Z,21.80
2022-11-01T01:24:56.031Z,19.90
2022-11-01T01:27:22.689Z,21.33
2022-11-01T01:29:49.489Z,20.70
2022-11-01T01:32:18.964Z,20.98
2022-11-01T01:34:45.934Z,19.88
2022-11-01T01:37:15.101Z,18.90
2022-11-01T01:39:42.019Z,19.85
2022-11-01T01:42:28.434Z,19.85
2022-11-01T01:44:55.170Z,20.17
2022-11-01T01:47:28.278Z,19.65
2022-11-01T01:50:12.142Z,19.40
2022-11-01T01:52:50.246Z,20.23
2022-11-01T01:55:22.083Z,21.50
2022-11-01T01:57:49.778Z,19.10
2022-11-01T02:00:16.996Z,19.98
2022-11-01T02:02:43.901Z,20.27
2022-11-01T02:05:18.264Z,19.58
2022-11-01T02:07:45.715Z,19.55
2022-11-01T02:10:14.716Z,21.23
2022-11-01T02:12:47.196Z,20.65
2022-11-01T02:15:14.816Z,19.80
2022-11-01T02:17:44.627Z,20.92
2022-11-01T02:20:21.024Z,21.40
2022-11-01T02:23:19.215Z,21.88
2022-11-01T02:25:58.046Z,22.20
2022-11-01T02:28:33.773Z,23.02
2022-11-01T02:31:35.527Z,20.17
2022-11-01T02:34:12.709Z,21.30
2022-11-01T02:36:48.389Z,22.35
2022-11-01T02:39:26.772Z,20.95
2022-11-01T02:42:04.017Z,22.75
2022-11-01T02:44:37.570Z,22.67
2022-11-01T02:47:05.997Z,22.05
2022-11-01T02:49:39.840Z,22.55
2022-11-01T02:52:09.040Z,23.50
2022-11-01T02:54:42.668Z,23.80
2022-11-01T02:57:44.103Z,22.88
2022-11-01T03:00:20.835Z,24.20
2022-11-01T03:02:50.993Z,23.75
2022-11-01T03:05:26.908Z,23.85
2022-11-01T03:08:02.344Z,24.75
2022-11-01T03:10:43.306Z,23.58
2022-11-01T03:13:17.530Z,23.67
2022-11-01T03:15:57.051Z,25.92
2022-11-01T03:18:32.312Z,25.67
2022-11-01T03:21:15.552Z,25.77
2022-11-01T03:24:38.137Z,25.67
2022-11-01T03:27:10.752Z,25.38
2022-11-01T03:29:38.940Z,25.25
2022-11-01T03:32:07.575Z,25.00
2022-11-01T03:34:36.930Z,26.83
2022-11-01T03:37:07.694Z,25.50
2022-11-01T03:39:47.929Z,26.23
2022-11-01T03:42:21.784Z,25.77
2022-11-01T03:44:56.038Z,25.77
2022-11-01T03:47:22.788Z,27.20
2022-11-01T03:50:12.861Z,27.05
2022-11-01T03:52:39.646Z,25.95
2022-11-01T03:55:18.154Z,26.73
2022-11-01T03:57:56.023Z,25.17
2022-11-01T04:02:57.664Z,26.00
2022-11-01T04:05:26.692Z,26.85
2022-11-01T04:07:53.972Z,25.73
2022-11-01T04:10:25.161Z,27.67
2022-11-01T04:12:53.014Z,26.10
2022-11-01T04:15:40.301Z,26.45
2022-11-01T04:18:32.849Z,28.35
2022-11-01T04:21:03.402Z,26.25
2022-11-01T04:23:30.452Z,26.88
2022-11-01T04:25:57.278Z,26.23
2022-11-01T04:28:24.021Z,26.05
2022-11-01T04:30:51.248Z,25.63
2022-11-01T04:33:18.064Z,27.50
2022-11-01T04:35:45.379Z,27.35
2022-11-01T04:38:12.946Z,27.65
2022-11-01T04:40:41.030Z,27.65
2022-11-01T04:43:07.891Z,28.25
2022-11-01T04:45:34.579Z,27.60
2022-11-01T04:48:04.122Z,28.27
2022-11-01T04:50:31.149Z,27.08
2022-11-01T04:53:00.148Z,27.65
2022-11-01T04:55:28.035Z,30.40
2022-11-01T04:57:54.926Z,28.65
2022-11-01T05:00:23.083Z,30.20
2022-11-01T05:02:50.227Z,28.27
2022-11-01T05:05:17.461Z,29.05
2022-11-01T05:07:44.358Z,30.20
2022-11-01T05:10:11.883Z,30.48
2022-11-01T05:12:38.617Z,27.73
2022-11-01T05:15:06.236Z,28.73
2022-11-01T05:17:32.983Z,29.05
2022-11-01T05:19:59.640Z,29.02
2022-11-01T05:22:26.383Z,31.15
2022-11-01T05:24:53.475Z,31.10
2022-11-01T05:27:20.151Z,28.13
2022-11-01T05:29:46.855Z,29.52
2022-11-01T05:32:13.495Z,29.15
2022-11-01T05:34:40.149Z,29.65
2022-11-01T05:37:06.857Z,28.50
2022-11-01T05:39:33.559Z,28.30
2022-11-01T05:42:02.905Z,29.02
2022-11-01T05:44:29.818Z,28.77
2022-11-01T05:46:56.539Z,28.63
2022-11-01T05:49:24.577Z,28.23
2022-11-01T05:51:51.279Z,27.45
2022-11-01T05:54:17.903Z,28.25
2022-11-01T05:56:44.644Z,28.15
2022-11-01T05:59:11.374Z,29.08
2022-11-01T06:01:41.428Z,27.52
2022-11-01T06:04:08.506Z,27.50
2022-11-01T06:06:35.297Z,27.65
2022-11-01T06:09:02.983Z,29.05
2022-11-01T06:11:29.875Z,27.80
2022-11-01T06:13:58.112Z,27.25
2022-11-01T06:16:26.299Z,28.13
2022-11-01T06:18:53.645Z,27.15
2022-11-01T06:21:26.045Z,28.10
2022-11-01T06:23:55.938Z,26.23
2022-11-01T06:26:22.557Z,28.50
2022-11-01T06:28:49.308Z,27.42
2022-11-01T06:31:16.302Z,28.95
2022-11-01T06:33:42.980Z,26.20
2022-11-01T06:36:09.813Z,28.25
2022-11-01T06:38:36.534Z,27.63
2022-11-01T06:41:03.250Z,28.50
2022-11-01T06:43:29.918Z,29.25
2022-11-01T06:46:00.637Z,27.90
2022-11-01T06:48:28.617Z,27.92
2022-11-01T06:50:55.986Z,27.50
2022-11-01T06:53:23.860Z,28.75
2022-11-01T06:55:52.242Z,27.48
2022-11-01T06:58:20.501Z,26.65
2022-11-01T07:00:47.281Z,27.27
2022-11-01T07:03:14.859Z,28.65
2022-11-01T07:05:42.097Z,29.27
2022-11-01T07:08:12.753Z,30.20
2022-11-01T07:10:43.182Z,29.00
2022-11-01T07:13:12.691Z,28.83
2022-11-01T07:15:39.586Z,30.00
2022-11-01T07:18:08.764Z,29.30
2022-11-01T07:20:41.878Z,32.45
2022-11-01T07:23:14.418Z,28.67
2022-11-01T07:25:41.721Z,29.55
2022-11-01T07:28:09.039Z,29.52
2022-11-01T07:30:35.974Z,28.77
2022-11-01T07:33:04.884Z,31.08
2022-11-01T07:35:31.972Z,31.55
2022-11-01T07:38:01.148Z,31.30
2022-11-01T07:40:29.962Z,28.70
2022-11-01T07:42:59.863Z,30.80
2022-11-01T07:45:28.905Z,28.13
2022-11-01T07:48:07.022Z,29.80
2022-11-01T07:50:34.538Z,27.30
2022-11-01T07:53:05.612Z,28.70
2022-11-01T07:55:32.805Z,29.63
2022-11-01T07:58:00.012Z,28.17
2022-11-01T08:00:26.946Z,29.23
2022-11-01T08:03:01.253Z,29.98
2022-11-01T08:05:28.871Z,28.63
2022-11-01T08:07:55.834Z,28.98
2022-11-01T08:10:22.574Z,29.23
2022-11-01T08:12:49.276Z,29.75
2022-11-01T08:15:16.250Z,30.08
2022-11-01T08:17:42.982Z,27.77
2022-11-01T08:20:10.461Z,29.23
2022-11-01T08:22:43.042Z,30.50
2022-11-01T08:25:09.953Z,30.88
2022-11-01T08:27:36.737Z,30.75
2022-11-01T08:30:04.049Z,30.45
2022-11-01T08:32:30.815Z,29.27
2022-11-01T08:34:57.484Z,31.13
2022-11-01T08:37:24.177Z,30.20
2022-11-01T08:39:50.760Z,30.73
2022-11-01T08:42:17.518Z,31.77
2022-11-01T08:44:44.211Z,30.20
2022-11-01T08:47:11.601Z,29.25
2022-11-01T08:49:38.282Z,28.55
2022-11-01T08:52:05.950Z,31.20
2022-11-01T08:54:34.220Z,30.23
2022-11-01T08:57:02.629Z,29.30
2022-11-01T08:59:29.519Z,30.00
2022-11-01T09:01:56.353Z,30.38
2022-11-01T09:04:23.118Z,30.00
2022-11-01T09:06:49.755Z,29.73
2022-11-01T09:09:16.496Z,30.05
2022-11-01T09:11:43.175Z,32.47
2022-11-01T09:14:09.974Z,31.02
2022-11-01T09:16:36.601Z,33.67
2022-11-01T09:19:03.480Z,32.92
2022-11-01T09:21:32.049Z,34.92
2022-11-01T09:23:59.216Z,32.88
2022-11-01T09:26:29.196Z,31.65
2022-11-01T09:28:58.833Z,34.72
2022-11-01T09:31:26.026Z,32.78
2022-11-01T09:33:55.115Z,33.53
2022-11-01T09:36:22.008Z,33.05
2022-11-01T09:38:48.753Z,34.72
2022-11-01T09:41:24.309Z,32.70
2022-11-01T09:43:53.213Z,33.83
2022-11-01T09:46:25.797Z,31.95
2022-11-01T09:48:55.444Z,32.58
2022-11-01T09:51:24.203Z,32.13
2022-11-01T09:53:54.185Z,31.20
2022-11-01T09:56:30.454Z,31.30
2022-11-01T09:59:21.543Z,30.73
2022-11-01T10:02:19.010Z,32.45
2022-11-01T10:05:13.193Z,28.38
2022-11-01T10:08:15.260Z,28.55
2022-11-01T10:10:57.483Z,28.25
2022-11-01T10:13:52.063Z,26.85
2022-11-01T10:16:43.959Z,27.00
2022-11-01T10:19:17.609Z,24.67
2022-11-01T10:21:46.714Z,24.65
2022-11-01T10:24:31.799Z,24.42
2022-11-01T10:27:34.603Z,23.77
2022-11-01T10:30:04.541Z,26.48
2022-11-01T10:32:34.934Z,24.70
2022-11-01T10:35:12.320Z,25.38
2022-11-01T10:38:03.998Z,27.13
2022-11-01T10:41:04.019Z,23.65
2022-11-01T10:43:34.732Z,23.27
2022-11-01T10:46:03.884Z,24.20
2022-11-01T10:48:38.341Z,23.70
2022-11-01T10:51:07.835Z,23.88
2022-11-01T10:53:45.798Z,24.33
2022-11-01T10:56:23.003Z,23.95
2022-11-01T10:59:06.058Z,24.73
2022-11-01T11:01:39.127Z,22.85
2022-11-01T11:04:11.380Z,21.50
2022-11-01T11:06:40.274Z,21.13
2022-11-01T11:09:08.572Z,20.02
2022-11-01T11:11:40.841Z,21.00
2022-11-01T11:14:09.978Z,19.77
2022-11-01T11:16:44.625Z,19.40
2022-11-01T11:19:12.086Z,19.83
2022-11-01T11:21:38.856Z,20.15
2022-11-01T11:24:05.874Z,18.67
2022-11-01T11:26:39.182Z,18.05
2022-11-01T11:29:06.182Z,17.98
2022-11-01T11:31:34.861Z,18.48
2022-11-01T11:34:23.728Z,18.25
2022-11-01T11:36:53.592Z,18.23
2022-11-01T11:39:25.148Z,17.60
2022-11-01T11:41:51.943Z,17.10
2022-11-01T11:44:39.402Z,16.50
2022-11-01T11:47:21.260Z,16.23
2022-11-01T11:49:50.305Z,15.85
2022-11-01T11:52:22.463Z,16.10
2022-11-01T11:54:53.959Z,16.55
2022-11-01T11:57:26.779Z,15.55
2022-11-01T12:00:06.033Z,15.43
2022-11-01T12:02:38.575Z,15.88
2022-11-01T12:05:16.074Z,14.63
2022-11-01T12:07:52.500Z,15.38
2022-11-01T12:10:38.826Z,14.70
2022-11-01T12:13:33.486Z,15.30
2022-11-01T12:16:24.425Z,14.70
2022-11-01T12:19:00.937Z,16.38
2022-11-01T12:21:35.896Z,15.35
2022-11-01T12:24:23.986Z,15.73
2022-11-01T12:26:54.187Z,14.57
2022-11-01T12:29:27.015Z,15.30
2022-11-01T12:31:57.333Z,14.45
2022-11-01T12:34:31.006Z,15.02
2022-11-01T12:37:03.085Z,13.93
2022-11-01T12:39:57.451Z,13.90
2022-11-01T12:42:28.693Z,13.75
2022-11-01T12:45:15.445Z,15.40
2022-11-01T12:47:48.284Z,14.23
2022-11-01T12:50:26.729Z,12.90
2022-11-01T12:53:17.540Z,13.00
2022-11-01T12:55:44.308Z,12.10
2022-11-01T12:58:15.964Z,12.88
2022-11-01T13:01:06.511Z,13.05
2022-11-01T13:03:58.060Z,12.48
2022-11-01T13:06:43.641Z,11.45
2022-11-01T13:09:32.473Z,10.07
2022-11-01T13:12:10.185Z,10.00
2022-11-01T13:17:16.800Z,9.32
2022-11-01T13:19:59.240Z,8.63
2022-11-01T13:22:51.119Z,8.75
2022-11-01T13:25:31.119Z,7.97
2022-11-01T13:28:17.248Z,7.03
2022-11-01T13:30:54.893Z,6.47
2022-11-01T13:33:41.282Z,6.50
2022-11-01T13:36:31.469Z,6.20
2022-11-01T13:39:15.053Z,6.15
2022-11-01T13:41:59.787Z,5.72
2022-11-01T13:44:32.383Z,5.45
2022-11-01T13:47:20.646Z,5.70
2022-11-01T13:50:18.342Z,4.93
2022-11-01T13:52:57.856Z,4.65
2022-11-01T13:55:38.083Z,4.72
2022-11-01T13:58:08.450Z,4.40
2022-11-01T14:00:48.878Z,4.10
2022-11-01T14:03:25.470Z,4.57
2022-11-01T14:06:33.240Z,3.95
2022-11-01T14:09:19.457Z,3.78
2022-11-01T14:11:50.007Z,3.90
2022-11-01T14:14:32.071Z,4.03
2022-11-01T14:17:20.575Z,3.75
2022-11-01T14:19:48.395Z,3.45
2022-11-01T14:22:28.334Z,3.25
2022-11-01T14:24:59.676Z,2.90
2022-11-01T14:27:32.196Z,3.00
2022-11-01T14:29:58.926Z,2.70
2022-11-01T14:32:29.813Z,3.00
2022-11-01T14:35:33.841Z,2.80
2022-11-01T14:38:05.039Z,2.65
2022-11-01T14:40:54.050Z,2.20
2022-11-01T14:43:42.956Z,2.08
2022-11-01T14:46:15.931Z,2.20
2022-11-01T14:48:49.297Z,1.70
2022-11-01T14:51:30.712Z,1.50
2022-11-01T14:54:13.482Z,1.88
2022-11-01T14:56:41.324Z,1.67
2022-11-01T14:59:20.388Z,1.17
2022-11-01T15:01:50.147Z,1.27
2022-11-01T15:04:27.386Z,1.55
2022-11-01T15:06:53.981Z,0.98
2022-11-01T15:09:24.263Z,0.95
2022-11-01T15:11:53.708Z,1.40
2022-11-01T15:14:35.362Z,1.50
2022-11-01T15:17:02.215Z,1.02
2022-11-01T15:19:36.122Z,1.00
2022-11-01T15:22:03.668Z,1.02
2022-11-01T15:24:33.456Z,1.48
2022-11-01T15:27:08.527Z,1.40
2022-11-01T15:29:36.502Z,1.63
2022-11-01T15:32:04.075Z,1.10
2022-11-01T15:34:34.338Z,1.67
2022-11-01T15:37:18.478Z,1.35
2022-11-01T15:39:45.201Z,1.90
2022-11-01T15:42:16.721Z,1.35
2022-11-01T15:47:21.152Z,1.35
2022-11-01T15:49:51.227Z,0.93
2022-11-01T15:52:24.010Z,1.25
2022-11-01T15:55:06.950Z,1.33
2022-11-01T15:57:41.634Z,2.17
2022-11-01T16:00:18.811Z,2.40
2022-11-01T16:02:49.860Z,2.35
2022-11-01T16:05:20.691Z,2.15
2022-11-01T16:07:48.683Z,3.25
2022-11-01T16:10:30.214Z,2.47
2022-11-01T16:12:59.883Z,3.03
2022-11-01T16:15:34.467Z,2.60
2022-11-01T16:18:13.980Z,1.80
2022-11-01T16:20:41.305Z,2.85
2022-11-01T16:23:12.612Z,3.33
2022-11-01T16:25:39.868Z,2.75
2022-11-01T16:28:09.530Z,3.78
2022-11-01T16:30:39.312Z,3.90
2022-11-01T16:33:25.122Z,4.10
2022-11-01T16:36:20.511Z,4.32
2022-11-01T16:38:51.982Z,6.85
2022-11-01T16:41:37.951Z,5.45
2022-11-01T16:44:16.820Z,5.65
2022-11-01T16:46:44.279Z,5.63
2022-11-01T16:49:14.124Z,5.88
2022-11-01T16:51:41.346Z,4.75
2022-11-01T16:54:12.778Z,3.83
2022-11-01T16:56:52.891Z,2.95
2022-11-01T16:59:23.791Z,3.95
2022-11-01T17:01:52.292Z,2.30
2022-11-01T17:04:19.532Z,2.38
2022-11-01T17:06:46.455Z,2.50
2022-11-01T17:09:15.300Z,3.03
2022-11-01T17:11:47.848Z,2.10
2022-11-01T17:14:18.432Z,2.75
2022-11-01T17:16:47.597Z,1.75
2022-11-01T17:19:25.888Z,2.17
2022-11-01T17:21:53.801Z,2.10
2022-11-01T17:24:24.382Z,1.77
2022-11-01T17:26:52.492Z,1.80
2022-11-01T17:29:19.375Z,1.95
2022-11-01T17:31:46.171Z,2.15
2022-11-01T17:34:12.964Z,1.90
2022-11-01T17:36:43.691Z,1.60
2022-11-01T17:39:11.158Z,2.15
2022-11-01T17:41:38.023Z,1.77
2022-11-01T17:44:04.942Z,2.13
2022-11-01T17:46:31.676Z,2.05
2022-11-01T17:48:58.561Z,2.67
2022-11-01T17:51:25.364Z,1.98
2022-11-01T17:53:55.781Z,2.00
2022-11-01T17:56:24.010Z,1.77
2022-11-01T17:58:53.714Z,2.10
2022-11-01T18:01:21.992Z,2.22
2022-11-01T18:03:49.277Z,2.33
2022-11-01T18:06:16.556Z,2.65
2022-11-01T18:08:46.656Z,2.40
2022-11-01T18:11:44.658Z,2.90
2022-11-01T18:14:35.872Z,2.60
2022-11-01T18:17:17.483Z,1.83
2022-11-01T18:20:09.330Z,2.35
2022-11-01T18:22:53.386Z,2.00
2022-11-01T18:25:30.636Z,3.10
2022-11-01T18:28:01.454Z,2.33
2022-11-01T18:30:28.432Z,2.92
2022-11-01T18:33:02.886Z,3.40
2022-11-01T18:35:44.368Z,3.45
2022-11-01T18:38:17.956Z,3.00
2022-11-01T18:41:01.417Z,3.70
2022-11-01T18:43:39.301Z,3.22
2022-11-01T18:46:26.396Z,3.08
2022-11-01T18:49:00.551Z,3.35
2022-11-01T18:51:30.114Z,3.88
2022-11-01T18:54:09.331Z,4.05
2022-11-01T18:56:40.313Z,2.60
2022-11-01T18:59:19.445Z,2.63
2022-11-01T19:01:50.567Z,2.03
2022-11-01T19:04:22.066Z,2.20
2022-11-01T19:06:49.056Z,2.42
2022-11-01T19:09:29.578Z,2.53
2022-11-01T19:12:14.152Z,2.65
2022-11-01T19:14:43.061Z,2.53
2022-11-01T19:17:27.103Z,2.60
2022-11-01T19:19:56.186Z,2.47
2022-11-01T19:22:29.187Z,3.67
2022-11-01T19:24:56.022Z,2.20
2022-11-01T19:27:23.220Z,3.35
2022-11-01T19:29:57.604Z,2.70
2022-11-01T19:32:25.404Z,2.60
2022-11-01T19:34:54.104Z,3.08
2022-11-01T19:37:33.169Z,2.47
2022-11-01T19:40:12.955Z,3.00
2022-11-01T19:42:39.813Z,2.30
2022-11-01T19:45:25.824Z,2.78
2022-11-01T19:47:52.686Z,3.00
2022-11-01T19:50:25.182Z,2.70
2022-11-01T19:52:56.437Z,2.70
2022-11-01T19:55:51.971Z,2.45
2022-11-01T19:58:22.665Z,2.92
2022-11-01T20:00:49.797Z,2.80
2022-11-01T20:03:44.392Z,3.08
2022-11-01T20:06:15.557Z,2.65
2022-11-01T20:08:45.080Z,2.40
2022-11-01T20:11:13.070Z,3.30
2022-11-01T20:13:40.397Z,2.88
2022-11-01T20:16:07.667Z,2.40
2022-11-01T20:18:34.566Z,3.65
2022-11-01T20:21:05.931Z,2.75
2022-11-01T20:23:34.051Z,2.22
2022-11-01T20:26:02.020Z,2.10
2022-11-01T20:28:28.750Z,2.47
2022-11-01T20:30:56.081Z,2.63
2022-11-01T20:33:24.198Z,2.47
2022-11-01T20:35:51.343Z,2.40
2022-11-01T20:40:50.101Z,2.67
2022-11-01T20:43:16.847Z,2.25
2022-11-01T20:45:43.517Z,2.55
2022-11-01T20:48:10.221Z,2.88
2022-11-01T20:50:36.947Z,2.17
2022-11-01T20:53:05.606Z,2.42
2022-11-01T20:55:33.744Z,2.95
2022-11-01T20:58:00.586Z,2.85
2022-11-01T21:00:31.799Z,3.30
2022-11-01T21:03:01.023Z,2.05
2022-11-01T21:05:29.921Z,2.40
2022-11-01T21:08:14.963Z,2.03
2022-11-01T21:10:43.275Z,2.50
2022-11-01T21:13:22.295Z,2.75
2022-11-01T21:15:49.491Z,1.90
2022-11-01T21:18:16.301Z,2.35
2022-11-01T21:20:47.853Z,2.47
2022-11-01T21:23:35.577Z,2.20
2022-11-01T21:26:11.687Z,1.42
2022-11-01T21:28:40.012Z,1.90
2022-11-01T21:31:09.831Z,2.25
2022-11-01T21:33:43.732Z,1.40
2022-11-01T21:36:34.967Z,2.13
2022-11-01T21:39:25.418Z,1.83
2022-11-01T21:42:03.579Z,1.90
2022-11-01T21:44:45.478Z,1.58
2022-11-01T21:47:29.832Z,2.05
2022-11-01T21:52:23.557Z,1.80
2022-11-01T21:54:50.904Z,2.20
2022-11-01T21:57:17.635Z,2.00
2022-11-01T21:59:44.593Z,2.33
2022-11-01T22:02:13.269Z,1.73
2022-11-01T22:04:40.818Z,2.38
2022-11-01T22:07:08.720Z,2.08
2022-11-01T22:09:35.948Z,2.10
2022-11-01T22:12:03.471Z,1.67
2022-11-01T22:14:30.469Z,2.67
2022-11-01T22:16:57.205Z,1.90
2022-11-01T22:19:24.230Z,1.88
2022-11-01T22:21:50.955Z,2.10
2022-11-01T22:24:17.606Z,1.60
2022-11-01T22:26:44.353Z,2.47
2022-11-01T22:29:11.080Z,2.28
2022-11-01T22:31:37.910Z,1.50
2022-11-01T22:34:04.843Z,1.52
2022-11-01T22:36:39.333Z,2.10
2022-11-01T22:39:18.381Z,1.40
2022-11-01T22:41:45.266Z,2.17
2022-11-01T22:44:14.534Z,2.58
2022-11-01T22:47:27.092Z,1.90
2022-11-01T22:49:56.004Z,1.67
2022-11-01T22:52:22.686Z,1.80
2022-11-01T22:54:58.754Z,1.48
2022-11-01T22:57:28.899Z,1.88
2022-11-01T23:00:15.883Z,1.73
2022-11-01T23:02:42.958Z,1.27
2022-11-01T23:05:10.387Z,1.60
2022-11-01T23:07:42.985Z,1.38
2022-11-01T23:10:25.084Z,1.90
2022-11-01T23:13:16.935Z,1.63
2022-11-01T23:15:45.699Z,2.42
2022-11-01T23:18:15.650Z,1.60
2022-11-01T23:20:43.269Z,1.30
2022-11-01T23:23:19.832Z,1.80
2022-11-01T23:25:47.392Z,1.10
2022-11-01T23:28:15.063Z,1.50
2022-11-01T23:30:43.500Z,1.50
2022-11-01T23:33:15.352Z,1.65
2022-11-01T23:35:44.029Z,1.73
2022-11-01T23:39:00.544Z,3.92
2022-11-01T23:41:34.875Z,2.03
2022-11-01T23:44:10.760Z,1.10
2022-11-01T23:46:37.462Z,1.95
2022-11-01T23:49:23.558Z,1.20
2022-11-01T23:51:50.931Z,1.48
2022-11-01T23:54:35.024Z,1.80
2022-11-01T23:57:02.112Z,2.13
2022-11-01T23:59:28.933Z,1.70
